Time;durP1;ratioP1;P1;durP2;ratioP2;P2;SDS_P1;SDS_P2;PMS_P1;PMS_P2;Temp;Humidity;BMP_temperature;BMP_pressure;BME280_temperature;BME280_humidity;BME280_pressure;Samples;Min_cycle;Max_cycle;Signal;HPM_P1;HPM_P2
2023/09/12 00:01:10;;;;;;;34.47;29.55;;;20.30;99.90;;;;;;5106743;28;20040;-58
2023/09/12 00:03:36;;;;;;;33.28;29.38;;;20.30;99.90;;;;;;5102840;28;20055;-59
2023/09/12 00:06:04;;;;;;;28.77;25.48;;;20.30;99.90;;;;;;5097539;28;20554;-58
2023/09/12 00:08:30;;;;;;;33.33;28.05;;;20.30;99.90;;;;;;5106481;28;20024;-58
2023/09/12 00:11:10;;;;;;;30.70;26.70;;;20.20;99.90;;;;;;5100623;28;20039;-58
2023/09/12 00:13:35;;;;;;;35.13;27.58;;;20.30;99.90;;;;;;5099179;28;20073;-58
2023/09/12 00:16:01;;;;;;;35.83;27.48;;;20.20;99.90;;;;;;5103038;28;20035;-58
2023/09/12 00:18:27;;;;;;;36.92;28.92;;;20.20;99.90;;;;;;5083126;28;20055;-58
2023/09/12 00:20:53;;;;;;;33.40;27.65;;;20.30;99.90;;;;;;5083324;28;20193;-58
2023/09/12 00:23:21;;;;;;;34.13;28.88;;;20.20;99.90;;;;;;5099198;28;20127;-58
2023/09/12 00:25:47;;;;;;;28.77;25.65;;;20.20;99.90;;;;;;5099329;28;20040;-58
2023/09/12 00:28:12;;;;;;;37.67;30.15;;;20.20;99.90;;;;;;5093353;28;20040;-58
2023/09/12 00:30:38;;;;;;;38.25;31.67;;;20.20;99.90;;;;;;5086513;28;20043;-56
2023/09/12 00:33:04;;;;;;;44.65;33.00;;;20.10;99.90;;;;;;5082584;28;20044;-58
2023/09/12 00:35:29;;;;;;;36.97;27.40;;;20.10;99.90;;;;;;5099949;28;20122;-59
2023/09/12 00:37:55;;;;;;;34.58;28.33;;;20.00;99.90;;;;;;5097316;28;20036;-57
2023/09/12 00:40:21;;;;;;;33.83;27.90;;;20.00;99.90;;;;;;5105183;28;20040;-58
2023/09/12 00:42:47;;;;;;;35.70;29.27;;;19.90;99.90;;;;;;5100355;28;20036;-58
2023/09/12 00:45:13;;;;;;;32.10;25.98;;;19.90;99.90;;;;;;5099670;28;20100;-58
2023/09/12 00:47:38;;;;;;;33.58;27.45;;;19.90;99.90;;;;;;5094816;28;20039;-57
2023/09/12 00:50:05;;;;;;;35.53;29.15;;;19.90;99.90;;;;;;5079534;28;20549;-58
2023/09/12 00:52:35;;;;;;;30.25;26.60;;;19.90;99.90;;;;;;5080487;28;20040;-57
2023/09/12 00:55:01;;;;;;;30.17;26.70;;;19.90;99.90;;;;;;5080039;28;20039;-57
2023/09/12 00:57:30;;;;;;;31.75;24.95;;;19.90;99.90;;;;;;5099095;28;20570;-58
2023/09/12 00:59:57;;;;;;;33.85;28.02;;;19.90;99.90;;;;;;5095797;28;20446;-58
2023/09/12 01:02:24;;;;;;;31.38;26.55;;;19.90;99.90;;;;;;5094464;28;20752;-57
2023/09/12 01:04:51;;;;;;;31.17;25.85;;;19.90;99.90;;;;;;5100034;28;20043;-58
2023/09/12 01:07:17;;;;;;;33.47;29.27;;;19.90;99.90;;;;;;5096981;28;20040;-56
2023/09/12 01:09:43;;;;;;;30.85;27.20;;;19.90;99.90;;;;;;5101780;28;20039;-57
2023/09/12 01:12:08;;;;;;;29.45;25.10;;;19.90;99.90;;;;;;5100640;27;20042;-57
2023/09/12 01:14:34;;;;;;;39.70;30.23;;;19.90;99.90;;;;;;5097497;28;20093;-58
2023/09/12 01:17:01;;;;;;;42.33;30.17;;;19.80;99.90;;;;;;5097006;28;20089;-58
2023/09/12 01:19:27;;;;;;;34.40;28.92;;;19.80;99.90;;;;;;5083945;28;20058;-58
2023/09/12 01:22:17;;;;;;;30.27;27.05;;;19.70;99.90;;;;;;5098857;28;20047;-59
2023/09/12 01:25:02;;;;;;;36.58;30.20;;;19.70;99.90;;;;;;5081299;28;20046;-57
2023/09/12 01:27:32;;;;;;;37.47;29.90;;;19.60;99.90;;;;;;5103351;28;20066;-58
2023/09/12 01:30:05;;;;;;;34.17;29.13;;;19.60;99.90;;;;;;5080592;28;20483;-58
2023/09/12 01:32:35;;;;;;;38.25;32.28;;;19.50;99.90;;;;;;5101570;28;20690;-53
2023/09/12 01:35:03;;;;;;;34.53;28.33;;;19.50;99.90;;;;;;5099166;28;20075;-54
2023/09/12 01:37:30;;;;;;;34.05;28.80;;;19.50;99.90;;;;;;5095441;28;20751;-58
2023/09/12 01:39:55;;;;;;;31.95;28.50;;;19.50;99.90;;;;;;5081395;28;20516;-57
2023/09/12 01:42:22;;;;;;;34.50;29.50;;;19.50;99.90;;;;;;5097058;28;20031;-58
2023/09/12 01:44:50;;;;;;;37.83;32.40;;;19.50;99.90;;;;;;5100850;28;20039;-58
2023/09/12 01:47:17;;;;;;;35.28;31.38;;;19.50;99.90;;;;;;5075480;28;20085;-56
2023/09/12 01:49:48;;;;;;;35.50;31.15;;;19.50;99.90;;;;;;5105863;28;20097;-57
2023/09/12 01:52:15;;;;;;;38.85;32.15;;;19.50;99.90;;;;;;5105053;28;20168;-57
2023/09/12 01:54:42;;;;;;;33.13;25.88;;;19.40;99.90;;;;;;5099830;28;20602;-58
2023/09/12 01:57:09;;;;;;;31.45;26.33;;;19.40;99.90;;;;;;5102367;28;20127;-57
2023/09/12 01:59:34;;;;;;;34.13;28.13;;;19.40;99.90;;;;;;5103920;28;20438;-58
2023/09/12 02:02:00;;;;;;;36.88;29.35;;;19.30;99.90;;;;;;5095561;28;20044;-57
2023/09/12 02:04:26;;;;;;;37.75;31.35;;;19.30;99.90;;;;;;5104970;28;20071;-56
2023/09/12 02:06:52;;;;;;;38.53;30.98;;;19.30;99.90;;;;;;5098621;28;20131;-56
2023/09/12 02:09:17;;;;;;;38.60;30.70;;;19.20;99.90;;;;;;5096588;28;20036;-57
2023/09/12 02:11:43;;;;;;;37.80;29.90;;;19.20;99.90;;;;;;5104456;28;20032;-57
2023/09/12 02:14:10;;;;;;;33.58;28.40;;;19.20;99.90;;;;;;5100983;28;20042;-58
2023/09/12 02:16:40;;;;;;;36.70;29.70;;;19.10;99.90;;;;;;5100366;28;20036;-57
2023/09/12 02:19:06;;;;;;;35.08;29.13;;;19.10;99.90;;;;;;5078770;28;20043;-57
2023/09/12 02:21:32;;;;;;;34.08;28.30;;;19.00;99.90;;;;;;5098708;28;20106;-57
2023/09/12 02:23:57;;;;;;;33.80;27.42;;;19.00;99.90;;;;;;5083951;28;20521;-56
2023/09/12 02:26:23;;;;;;;33.15;27.17;;;19.00;99.90;;;;;;5099131;28;20047;-58
2023/09/12 02:28:49;;;;;;;27.45;24.13;;;18.90;99.90;;;;;;5101156;28;20043;-55
2023/09/12 02:31:14;;;;;;;25.05;22.48;;;18.90;99.90;;;;;;5099720;28;20056;-56
2023/09/12 02:33:42;;;;;;;28.25;24.83;;;18.80;99.90;;;;;;5099651;28;20470;-58
2023/09/12 02:36:08;;;;;;;25.40;22.65;;;18.80;99.90;;;;;;5098688;28;20528;-57
2023/09/12 02:38:34;;;;;;;33.67;26.88;;;18.70;99.90;;;;;;5094080;28;20039;-58
2023/09/12 02:41:00;;;;;;;32.38;28.27;;;18.70;99.90;;;;;;5099979;28;20035;-57
2023/09/12 02:43:25;;;;;;;30.15;26.83;;;18.70;99.90;;;;;;5097738;28;20188;-57
2023/09/12 02:45:51;;;;;;;34.83;27.70;;;18.70;99.90;;;;;;5095383;28;20075;-58
2023/09/12 02:48:17;;;;;;;38.42;28.73;;;18.70;99.90;;;;;;5099887;28;20118;-58
2023/09/12 02:50:42;;;;;;;63.38;30.08;;;18.70;99.90;;;;;;5093504;28;20047;-58
2023/09/12 02:53:08;;;;;;;58.10;28.42;;;18.70;99.90;;;;;;5095290;28;20039;-57
2023/09/12 02:55:38;;;;;;;34.45;26.10;;;18.70;99.90;;;;;;5097793;28;20069;-57
2023/09/12 02:58:04;;;;;;;26.65;22.35;;;18.60;99.90;;;;;;5102614;28;20042;-57
2023/09/12 03:00:30;;;;;;;43.13;23.65;;;18.60;99.90;;;;;;5102791;28;20032;-59
2023/09/12 03:02:55;;;;;;;35.70;22.58;;;18.60;99.90;;;;;;5081543;28;20635;-58
2023/09/12 03:05:21;;;;;;;47.58;22.48;;;18.60;99.90;;;;;;5099524;28;20115;-58
2023/09/12 03:07:47;;;;;;;32.60;22.98;;;18.60;99.90;;;;;;5099125;28;20032;-57
2023/09/12 03:10:13;;;;;;;72.15;25.88;;;18.60;99.90;;;;;;5100770;28;20039;-57
2023/09/12 03:12:39;;;;;;;52.63;25.45;;;18.60;99.90;;;;;;5081760;28;20046;-58
2023/09/12 03:15:05;;;;;;;34.30;23.40;;;18.60;99.90;;;;;;5099145;28;20065;-57
2023/09/12 03:17:31;;;;;;;41.78;22.85;;;18.60;99.90;;;;;;5095030;28;20047;-58
2023/09/12 03:19:56;;;;;;;66.20;29.40;;;18.60;99.90;;;;;;5097542;28;20428;-58
2023/09/12 03:22:22;;;;;;;46.15;26.45;;;18.60;99.90;;;;;;5115993;27;20100;-58
2023/09/12 03:24:48;;;;;;;28.67;21.45;;;18.50;99.90;;;;;;5077958;28;20549;-57
2023/09/12 03:27:13;;;;;;;40.95;24.23;;;18.50;99.90;;;;;;5078691;28;20048;-58
2023/09/12 03:29:39;;;;;;;49.55;27.58;;;18.50;99.90;;;;;;5094919;28;20040;-58
2023/09/12 03:32:05;;;;;;;50.53;26.52;;;18.60;99.90;;;;;;5098909;28;20071;-58
2023/09/12 03:34:30;;;;;;;43.67;26.55;;;18.50;99.90;;;;;;5105265;28;20086;-58
2023/09/12 03:36:56;;;;;;;81.28;26.60;;;18.50;99.90;;;;;;5093573;28;20611;-58
2023/09/12 03:39:22;;;;;;;33.55;27.25;;;18.50;99.90;;;;;;5099340;28;20040;-58
2023/09/12 03:41:47;;;;;;;88.63;31.58;;;18.50;99.90;;;;;;5098391;28;20110;-57
2023/09/12 03:44:13;;;;;;;318.85;39.28;;;18.50;99.90;;;;;;5077768;28;20047;-56
2023/09/12 03:46:39;;;;;;;42.97;30.05;;;18.40;99.90;;;;;;5092240;28;20112;-57
2023/09/12 03:49:04;;;;;;;46.33;29.65;;;18.40;99.90;;;;;;5095117;28;20036;-58
2023/09/12 03:51:30;;;;;;;48.80;28.60;;;18.40;99.90;;;;;;5095278;28;20047;-58
2023/09/12 03:53:56;;;;;;;58.30;30.70;;;18.40;99.90;;;;;;5091817;28;20035;-58
2023/09/12 03:56:21;;;;;;;61.55;29.35;;;18.40;99.90;;;;;;5083560;28;20122;-58
2023/09/12 03:58:47;;;;;;;38.40;25.88;;;18.40;99.90;;;;;;5102015;28;20047;-57
2023/09/12 04:01:13;;;;;;;30.20;25.65;;;18.40;99.90;;;;;;5102789;28;20042;-58
2023/09/12 04:03:39;;;;;;;50.97;29.33;;;18.40;99.90;;;;;;5095132;28;20229;-58
2023/09/12 04:06:05;;;;;;;28.25;24.08;;;18.40;99.90;;;;;;5099550;28;20048;-58
2023/09/12 04:08:32;;;;;;;29.77;25.52;;;18.40;99.90;;;;;;5098424;28;20116;-58
2023/09/12 04:10:57;;;;;;;49.45;31.52;;;18.40;99.90;;;;;;5094181;28;20111;-57
2023/09/12 04:13:23;;;;;;;39.95;27.55;;;18.40;99.90;;;;;;5085745;28;20126;-57
2023/09/12 04:15:49;;;;;;;50.67;26.52;;;18.40;99.90;;;;;;5100147;28;20089;-58
2023/09/12 04:18:15;;;;;;;83.55;29.17;;;18.40;99.90;;;;;;5094104;28;20588;-56
2023/09/12 04:20:40;;;;;;;49.20;25.05;;;18.40;99.90;;;;;;5095047;28;20043;-55
2023/09/12 04:23:06;;;;;;;65.53;27.30;;;18.30;99.90;;;;;;5099109;28;20050;-58
2023/09/12 04:25:33;;;;;;;36.53;24.40;;;18.30;99.90;;;;;;5094764;28;20044;-57
2023/09/12 04:27:59;;;;;;;32.45;24.83;;;18.30;99.90;;;;;;5100085;28;20048;-58
2023/09/12 04:30:24;;;;;;;70.88;27.13;;;18.30;99.90;;;;;;5078652;28;20118;-57
2023/09/12 04:32:50;;;;;;;51.97;28.95;;;18.20;99.90;;;;;;5103072;28;20608;-59
2023/09/12 04:35:17;;;;;;;25.85;22.33;;;18.20;99.90;;;;;;5100241;28;20048;-58
2023/09/12 04:37:43;;;;;;;29.10;23.45;;;18.20;99.90;;;;;;5096527;28;20096;-59
2023/09/12 04:40:09;;;;;;;53.72;27.00;;;18.20;99.90;;;;;;5098044;28;20039;-59
2023/09/12 04:42:35;;;;;;;40.47;29.98;;;18.20;99.90;;;;;;5083833;28;20043;-59
2023/09/12 04:45:00;;;;;;;43.88;27.55;;;18.20;99.90;;;;;;5090848;28;20050;-59
2023/09/12 04:47:27;;;;;;;45.45;25.73;;;18.10;99.90;;;;;;5103764;28;20046;-59
2023/09/12 04:49:53;;;;;;;51.08;29.83;;;18.10;99.90;;;;;;5100172;28;20040;-59
2023/09/12 04:52:18;;;;;;;40.92;28.40;;;18.10;99.90;;;;;;5104438;28;20088;-59
2023/09/12 04:54:44;;;;;;;38.33;28.13;;;18.10;99.90;;;;;;5071052;28;20059;-58
2023/09/12 04:57:10;;;;;;;33.17;24.02;;;18.10;99.90;;;;;;5079480;28;20040;-58
2023/09/12 04:59:36;;;;;;;43.88;26.80;;;18.10;99.90;;;;;;5085611;28;20130;-61
2023/09/12 05:02:01;;;;;;;49.13;28.77;;;18.10;99.90;;;;;;5081048;28;20055;-59
2023/09/12 05:04:27;;;;;;;43.35;30.48;;;18.10;99.90;;;;;;5104556;28;20052;-58
2023/09/12 05:06:53;;;;;;;55.08;28.27;;;18.10;99.90;;;;;;5102257;28;20043;-58
2023/09/12 05:09:19;;;;;;;33.83;26.15;;;18.10;99.90;;;;;;5099650;28;20032;-57
2023/09/12 05:11:44;;;;;;;55.35;31.80;;;18.10;99.90;;;;;;5101546;28;20479;-56
2023/09/12 05:14:10;;;;;;;35.10;29.25;;;18.10;99.90;;;;;;5104611;28;20031;-57
2023/09/12 05:16:36;;;;;;;51.92;29.85;;;18.10;99.90;;;;;;5106635;28;20469;-58
2023/09/12 05:19:01;;;;;;;34.75;28.88;;;18.10;99.90;;;;;;5101283;27;20061;-57
2023/09/12 05:21:27;;;;;;;41.85;30.27;;;18.00;99.90;;;;;;5104706;28;20044;-57
2023/09/12 05:23:53;;;;;;;42.58;31.00;;;18.10;99.90;;;;;;5069093;28;20180;-57
2023/09/12 05:26:19;;;;;;;40.63;27.58;;;18.10;99.90;;;;;;5101747;28;20040;-58
2023/09/12 05:28:44;;;;;;;32.53;26.58;;;18.10;99.90;;;;;;5093115;28;20326;-58
2023/09/12 05:31:10;;;;;;;37.78;30.05;;;18.10;99.90;;;;;;5080861;28;20044;-56
2023/09/12 05:33:36;;;;;;;41.20;29.83;;;18.00;99.90;;;;;;5096069;28;20047;-58
2023/09/12 05:36:02;;;;;;;74.97;32.35;;;18.00;99.90;;;;;;5091701;28;20040;-57
2023/09/12 05:38:28;;;;;;;68.43;31.25;;;18.00;99.90;;;;;;5096534;28;20410;-59
2023/09/12 05:40:53;;;;;;;40.25;31.08;;;18.10;99.90;;;;;;5099685;28;20051;-58
2023/09/12 05:43:19;;;;;;;33.47;28.23;;;18.10;99.90;;;;;;5093073;28;20536;-58
2023/09/12 05:45:45;;;;;;;34.65;27.67;;;18.10;99.90;;;;;;5085862;28;20047;-57
2023/09/12 05:48:10;;;;;;;56.85;30.95;;;18.10;99.90;;;;;;5098506;28;20032;-57
2023/09/12 05:50:39;;;;;;;31.35;27.00;;;18.10;99.90;;;;;;5094924;28;20119;-58
2023/09/12 05:53:05;;;;;;;45.65;29.25;;;18.10;99.90;;;;;;5099180;28;20035;-58
2023/09/12 05:55:31;;;;;;;62.20;34.90;;;18.20;99.90;;;;;;5097087;28;20043;-56
2023/09/12 05:57:57;;;;;;;36.88;26.35;;;18.20;99.90;;;;;;5096110;28;20035;-58
2023/09/12 06:00:32;;;;;;;35.22;31.35;;;18.20;99.90;;;;;;5096531;28;20055;-58
2023/09/12 06:02:58;;;;;;;111.40;37.40;;;18.30;99.90;;;;;;5098739;28;20043;-58
2023/09/12 06:05:24;;;;;;;32.42;27.00;;;18.30;99.90;;;;;;5099996;28;20108;-57
2023/09/12 06:07:50;;;;;;;32.28;27.65;;;18.30;99.90;;;;;;5101276;28;20040;-58
2023/09/12 06:10:16;;;;;;;36.47;30.65;;;18.40;99.90;;;;;;5103528;28;20134;-57
2023/09/12 06:12:42;;;;;;;35.17;30.23;;;18.40;99.90;;;;;;5095468;28;20145;-57
2023/09/12 06:15:08;;;;;;;32.35;27.58;;;18.40;99.90;;;;;;5099767;28;20773;-57
2023/09/12 06:17:34;;;;;;;39.53;30.77;;;18.40;99.90;;;;;;5094332;28;20141;-58
2023/09/12 06:20:00;;;;;;;34.13;28.17;;;18.50;99.90;;;;;;5103227;28;20490;-58
2023/09/12 06:22:25;;;;;;;40.70;34.15;;;18.50;99.90;;;;;;5098842;28;20050;-56
2023/09/12 06:24:51;;;;;;;40.60;33.80;;;18.60;99.90;;;;;;5075529;28;20109;-58
2023/09/12 06:27:18;;;;;;;53.78;36.33;;;18.60;99.90;;;;;;5099418;28;20626;-57
2023/09/12 06:29:48;;;;;;;39.70;32.63;;;18.70;99.90;;;;;;5086958;28;20071;-57
2023/09/12 06:32:15;;;;;;;48.42;36.10;;;18.70;99.90;;;;;;5098249;28;20753;-57
2023/09/12 06:34:41;;;;;;;52.08;36.60;;;18.80;99.90;;;;;;5074469;28;20119;-58
2023/09/12 06:37:07;;;;;;;59.70;39.78;;;18.80;99.90;;;;;;5103191;28;20410;-58
2023/09/12 06:39:33;;;;;;;43.15;35.80;;;18.80;99.90;;;;;;5101611;28;20043;-58
2023/09/12 06:41:59;;;;;;;45.85;34.17;;;18.80;99.90;;;;;;5081036;28;20543;-58
2023/09/12 06:44:24;;;;;;;65.15;37.90;;;18.90;99.90;;;;;;5080980;28;20122;-57
2023/09/12 06:46:50;;;;;;;43.95;35.40;;;18.90;99.90;;;;;;5069404;28;20027;-58
2023/09/12 06:49:16;;;;;;;53.42;38.67;;;18.90;99.90;;;;;;5082524;28;20044;-56
2023/09/12 06:51:41;;;;;;;58.40;39.80;;;18.90;99.90;;;;;;5073033;28;20050;-57
2023/09/12 06:54:07;;;;;;;56.15;37.97;;;18.90;99.90;;;;;;5098960;28;20118;-57
2023/09/12 06:56:37;;;;;;;44.20;33.22;;;18.90;99.90;;;;;;5102545;28;20134;-58
2023/09/12 06:59:04;;;;;;;52.20;39.22;;;19.00;99.90;;;;;;5104033;28;20433;-58
2023/09/12 07:01:30;;;;;;;62.42;41.47;;;19.00;99.90;;;;;;5098635;28;20116;-58
2023/09/12 07:03:56;;;;;;;63.95;43.15;;;19.00;99.90;;;;;;5085373;28;20082;-58
2023/09/12 07:06:22;;;;;;;57.67;40.38;;;19.10;99.90;;;;;;5094912;28;20641;-58
2023/09/12 07:08:48;;;;;;;59.42;40.33;;;19.10;99.90;;;;;;5078417;28;20035;-58
2023/09/12 07:11:14;;;;;;;61.45;42.35;;;19.10;99.90;;;;;;5094432;28;20047;-59
2023/09/12 07:13:40;;;;;;;65.85;44.13;;;19.20;99.90;;;;;;5100874;28;20446;-58
2023/09/12 07:16:06;;;;;;;71.85;46.33;;;19.20;99.90;;;;;;5100852;28;20036;-57
2023/09/12 07:18:32;;;;;;;69.78;46.67;;;19.20;99.90;;;;;;5085095;28;20417;-58
2023/09/12 07:21:03;;;;;;;68.25;46.92;;;19.20;99.90;;;;;;5099774;28;20040;-58
2023/09/12 07:23:29;;;;;;;71.68;45.97;;;19.30;99.90;;;;;;5086994;28;20379;-57
2023/09/12 07:25:57;;;;;;;73.78;48.08;;;19.30;99.90;;;;;;5104222;28;20079;-59
2023/09/12 07:28:27;;;;;;;65.32;44.63;;;19.40;99.90;;;;;;5090817;28;20039;-60
2023/09/12 07:30:55;;;;;;;63.28;43.97;;;19.50;99.90;;;;;;5107500;28;20041;-58
2023/09/12 07:33:21;;;;;;;65.45;44.30;;;19.70;99.90;;;;;;5085353;28;20040;-57
2023/09/12 07:35:48;;;;;;;71.10;48.47;;;19.80;99.90;;;;;;5107849;28;20039;-60
2023/09/12 07:38:16;;;;;;;67.68;45.47;;;19.80;99.90;;;;;;5088006;28;20047;-58
2023/09/12 07:40:42;;;;;;;69.32;46.97;;;19.80;99.90;;;;;;5096955;28;20044;-58
2023/09/12 07:43:09;;;;;;;65.13;44.28;;;19.80;99.90;;;;;;5106231;28;20048;-58
2023/09/12 07:45:37;;;;;;;68.30;47.92;;;19.90;99.90;;;;;;5096853;28;20043;-59
2023/09/12 07:48:12;;;;;;;64.05;46.92;;;19.90;99.90;;;;;;5101279;28;20032;-57
2023/09/12 07:50:38;;;;;;;73.70;47.22;;;20.00;99.90;;;;;;5104992;28;20034;-58
2023/09/12 07:53:07;;;;;;;64.60;45.15;;;20.10;99.90;;;;;;5103032;28;20161;-57
2023/09/12 07:55:45;;;;;;;68.75;47.33;;;20.20;99.90;;;;;;5087136;28;20046;-57
2023/09/12 07:58:14;;;;;;;67.90;45.65;;;20.40;99.90;;;;;;5094074;28;20059;-57
2023/09/12 08:00:40;;;;;;;64.72;45.78;;;20.60;99.90;;;;;;5101323;28;20048;-58
2023/09/12 08:03:06;;;;;;;67.80;46.50;;;20.70;99.90;;;;;;5105436;28;20055;-58
2023/09/12 08:05:32;;;;;;;63.25;44.88;;;20.80;99.90;;;;;;5106121;28;20039;-57
2023/09/12 08:07:58;;;;;;;63.50;44.25;;;20.90;99.90;;;;;;5110942;27;20089;-59
2023/09/12 08:10:24;;;;;;;64.05;40.90;;;20.90;99.90;;;;;;5104496;28;20039;-58
2023/09/12 08:12:49;;;;;;;61.53;43.35;;;20.90;99.90;;;;;;5100132;28;20031;-57
2023/09/12 08:15:15;;;;;;;62.72;41.92;;;20.90;99.90;;;;;;5105201;28;20047;-58
2023/09/12 08:17:41;;;;;;;62.65;43.53;;;20.90;99.90;;;;;;5102613;28;20464;-57
2023/09/12 08:20:11;;;;;;;56.72;39.83;;;20.90;99.90;;;;;;5107304;28;20039;-58
2023/09/12 08:22:38;;;;;;;58.13;40.65;;;20.90;99.90;;;;;;5092662;28;20062;-58
2023/09/12 08:25:04;;;;;;;53.88;38.55;;;20.90;99.90;;;;;;5106291;28;20114;-58
2023/09/12 08:27:30;;;;;;;62.13;43.35;;;20.90;99.90;;;;;;5084382;28;20039;-58
2023/09/12 08:29:55;;;;;;;54.35;38.50;;;21.00;99.90;;;;;;5108137;28;20044;-58
2023/09/12 08:32:21;;;;;;;53.08;37.85;;;21.00;99.90;;;;;;5104433;28;20059;-58
2023/09/12 08:34:47;;;;;;;51.53;37.60;;;21.00;99.90;;;;;;5106147;28;20043;-58
2023/09/12 08:37:12;;;;;;;56.55;39.63;;;21.00;99.90;;;;;;5104241;28;20111;-58
2023/09/12 08:39:45;;;;;;;56.75;39.85;;;21.00;99.90;;;;;;5107720;28;20036;-60
2023/09/12 08:42:15;;;;;;;57.88;39.30;;;21.00;99.90;;;;;;5078218;28;20039;-60
2023/09/12 08:44:44;;;;;;;55.60;39.08;;;21.10;99.90;;;;;;5099739;28;20044;-62
2023/09/12 08:47:13;;;;;;;57.50;39.03;;;21.10;99.90;;;;;;5067839;28;20039;-59
2023/09/12 08:49:42;;;;;;;51.25;35.45;;;21.20;99.90;;;;;;5086577;28;20077;-58
2023/09/12 08:52:08;;;;;;;46.67;35.63;;;21.20;99.90;;;;;;5094196;28;20173;-58
2023/09/12 08:54:33;;;;;;;51.63;37.97;;;21.20;99.90;;;;;;5099154;28;20031;-54
2023/09/12 08:57:03;;;;;;;50.72;37.33;;;21.30;99.90;;;;;;5089561;28;20044;-57
2023/09/12 08:59:31;;;;;;;53.22;36.20;;;21.40;99.90;;;;;;5089590;28;20056;-58
2023/09/12 09:01:58;;;;;;;46.95;34.28;;;21.40;99.90;;;;;;5083429;28;20046;-58
2023/09/12 09:04:26;;;;;;;44.63;34.92;;;21.50;99.90;;;;;;5107465;28;20101;-56
2023/09/12 09:06:54;;;;;;;42.75;30.17;;;21.60;99.90;;;;;;5102085;28;20150;-58
2023/09/12 09:09:21;;;;;;;44.17;32.15;;;21.60;99.90;;;;;;5086687;28;20532;-57
2023/09/12 09:11:48;;;;;;;47.35;30.88;;;21.60;99.90;;;;;;5107099;28;20032;-58
2023/09/12 09:14:13;;;;;;;38.40;28.85;;;21.70;99.90;;;;;;5085401;28;20031;-58
2023/09/12 09:16:39;;;;;;;37.08;27.20;;;21.80;99.90;;;;;;5095407;28;20043;-59
2023/09/12 09:19:10;;;;;;;36.95;26.25;;;21.90;99.90;;;;;;5094876;28;20043;-58
2023/09/12 09:21:37;;;;;;;32.78;25.02;;;22.00;99.90;;;;;;5079387;28;20123;-58
2023/09/12 09:24:11;;;;;;;31.05;21.88;;;22.00;99.90;;;;;;5099957;28;20088;-58
2023/09/12 09:26:48;;;;;;;30.42;21.35;;;22.20;99.90;;;;;;5097837;28;20577;-59
2023/09/12 09:29:21;;;;;;;29.88;20.77;;;22.40;99.90;;;;;;5098653;28;20042;-57
2023/09/12 09:31:48;;;;;;;23.40;19.48;;;22.40;99.90;;;;;;5081298;27;20485;-58
2023/09/12 09:34:16;;;;;;;26.90;20.80;;;22.70;99.90;;;;;;5099394;28;20035;-59
2023/09/12 09:36:49;;;;;;;26.50;18.98;;;22.90;99.90;;;;;;5095054;28;20040;-59
2023/09/12 09:39:17;;;;;;;27.13;20.40;;;23.10;99.90;;;;;;5105162;27;20082;-57
2023/09/12 09:41:47;;;;;;;24.58;19.58;;;23.10;99.90;;;;;;5099205;28;20059;-58
2023/09/12 09:44:13;;;;;;;24.13;18.08;;;23.30;99.90;;;;;;5104062;28;20084;-59
2023/09/12 09:46:43;;;;;;;24.80;17.67;;;23.50;99.90;;;;;;5098323;28;20044;-59
2023/09/12 09:49:17;;;;;;;26.85;18.45;;;23.70;99.90;;;;;;5082534;28;20036;-59
2023/09/12 09:51:44;;;;;;;25.83;18.23;;;23.80;99.90;;;;;;5099776;28;20061;-57
2023/09/12 09:54:11;;;;;;;22.67;17.17;;;23.90;99.90;;;;;;5095578;28;20703;-59
2023/09/12 09:56:47;;;;;;;20.65;16.60;;;23.80;99.90;;;;;;5100890;27;20096;-60
2023/09/12 09:59:18;;;;;;;23.40;18.30;;;23.50;99.90;;;;;;5083488;28;20558;-59
2023/09/12 10:01:45;;;;;;;23.00;17.27;;;23.60;99.90;;;;;;5099092;28;20079;-58
2023/09/12 10:04:11;;;;;;;24.17;17.85;;;23.70;99.90;;;;;;5098260;28;20096;-58
2023/09/12 10:06:38;;;;;;;22.55;17.58;;;23.60;99.90;;;;;;5104852;27;20113;-58
2023/09/12 10:09:12;;;;;;;21.42;17.60;;;23.50;99.90;;;;;;5097809;28;20038;-59
2023/09/12 10:11:38;;;;;;;;;;;23.50;99.90;;;;;;5083314;28;20039;-59
2023/09/12 10:14:05;;;;;;;24.55;19.30;;;23.50;99.90;;;;;;5097083;28;19916;-58
2023/09/12 10:17:01;;;;;;;22.73;18.73;;;23.50;99.90;;;;;;5078505;28;20076;-58
2023/09/12 10:19:35;;;;;;;21.05;15.75;;;23.50;99.90;;;;;;5079078;28;20100;-58
2023/09/12 10:22:07;;;;;;;28.10;20.65;;;23.70;99.90;;;;;;5105679;28;20398;-59
2023/09/12 10:24:34;;;;;;;28.75;20.20;;;23.70;99.90;;;;;;5094924;28;20078;-58
2023/09/12 10:27:02;;;;;;;25.67;18.95;;;23.70;99.90;;;;;;5105129;28;20074;-58
2023/09/12 10:29:28;;;;;;;20.63;14.43;;;23.80;99.90;;;;;;5096806;28;20039;-59
2023/09/12 10:31:54;;;;;;;22.70;13.35;;;23.70;99.90;;;;;;5101365;28;20092;-59
2023/09/12 10:34:22;;;;;;;21.70;15.73;;;23.60;99.90;;;;;;5082604;28;20032;-60
2023/09/12 10:36:48;;;;;;;19.85;13.70;;;23.60;99.90;;;;;;5115452;27;20056;-59
2023/09/12 10:39:15;;;;;;;18.17;13.02;;;23.60;99.90;;;;;;5105264;28;20042;-60
2023/09/12 10:41:41;;;;;;;16.70;11.98;;;23.60;99.90;;;;;;5088010;27;20036;-59
2023/09/12 10:44:10;;;;;;;18.30;13.32;;;23.70;99.90;;;;;;5089274;28;20032;-59
2023/09/12 10:46:40;;;;;;;17.15;13.85;;;23.70;99.90;;;;;;5093840;28;20093;-59
2023/09/12 10:49:11;;;;;;;20.08;14.18;;;23.70;99.90;;;;;;5115979;27;20044;-60
2023/09/12 10:51:44;;;;;;;18.95;14.40;;;23.70;99.90;;;;;;5098770;28;20096;-58
2023/09/12 10:54:23;;;;;;;18.42;14.77;;;23.80;99.90;;;;;;5098992;28;20394;-59
2023/09/12 10:57:13;;;;;;;16.52;13.43;;;23.50;99.90;;;;;;5105738;28;20070;-59
2023/09/12 11:00:01;;;;;;;23.25;14.82;;;23.40;99.90;;;;;;5102335;28;20105;-59
2023/09/12 11:02:32;;;;;;;19.15;14.13;;;23.40;99.90;;;;;;5097865;27;20048;-59
2023/09/12 11:05:04;;;;;;;15.52;12.60;;;23.70;99.90;;;;;;5081278;28;20105;-56
2023/09/12 11:07:36;;;;;;;21.77;14.43;;;23.80;99.90;;;;;;5096585;28;20047;-60
2023/09/12 11:10:18;;;;;;;19.27;14.18;;;23.90;99.90;;;;;;5101801;28;20041;-59
2023/09/12 11:12:46;;;;;;;17.30;12.68;;;24.10;99.90;;;;;;5120583;27;20120;-59
2023/09/12 11:15:13;;;;;;;14.77;12.25;;;24.00;99.90;;;;;;5104566;28;20051;-58
2023/09/12 11:17:46;;;;;;;20.35;14.32;;;24.10;99.90;;;;;;5102591;28;20044;-57
2023/09/12 11:20:13;;;;;;;20.67;14.77;;;23.90;99.90;;;;;;5104473;28;20127;-60
2023/09/12 11:22:43;;;;;;;19.00;13.88;;;23.60;99.90;;;;;;5105085;28;20050;-60
2023/09/12 11:25:27;;;;;;;16.05;13.95;;;23.60;99.90;;;;;;5101403;28;20150;-59
2023/09/12 11:27:53;;;;;;;18.60;14.07;;;23.60;99.90;;;;;;5102823;27;20046;-58
2023/09/12 11:30:24;;;;;;;18.98;12.95;;;23.40;99.90;;;;;;5106822;28;20644;-59
2023/09/12 11:32:52;;;;;;;17.25;11.55;;;23.40;99.90;;;;;;5078126;28;20036;-59
2023/09/12 11:35:26;;;;;;;16.55;12.15;;;23.50;99.90;;;;;;5093000;28;20044;-59
2023/09/12 11:37:58;;;;;;;13.60;10.32;;;23.50;99.90;;;;;;5082888;28;20055;-59
2023/09/12 11:40:45;;;;;;;30.75;13.77;;;23.60;99.90;;;;;;5096412;28;20039;-60
2023/09/12 11:43:24;;;;;;;16.00;11.55;;;23.70;99.90;;;;;;5099229;28;20039;-59
2023/09/12 11:45:54;;;;;;;15.63;11.57;;;23.90;99.90;;;;;;5101357;28;20040;-60
2023/09/12 11:48:20;;;;;;;13.93;10.45;;;24.10;99.90;;;;;;5084455;28;20032;-60
2023/09/12 11:50:56;;;;;;;16.75;12.38;;;24.30;99.90;;;;;;5095290;28;20043;-60
2023/09/12 11:53:29;;;;;;;17.45;11.73;;;24.10;99.90;;;;;;5101037;28;20123;-60
2023/09/12 11:55:58;;;;;;;12.23;10.63;;;24.00;99.90;;;;;;5104786;28;20040;-61
2023/09/12 11:58:26;;;;;;;15.80;12.25;;;23.80;99.90;;;;;;5101532;27;20054;-59
2023/09/12 12:00:54;;;;;;;16.83;10.45;;;23.50;99.90;;;;;;5105232;28;20048;-60
2023/09/12 12:03:22;;;;;;;16.08;11.90;;;23.30;99.90;;;;;;5105461;28;20043;-60
2023/09/12 12:05:48;;;;;;;12.73;11.30;;;23.20;99.90;;;;;;5102923;28;20043;-60
2023/09/12 12:08:16;;;;;;;14.60;10.77;;;23.00;99.90;;;;;;5097079;27;20600;-61
2023/09/12 12:10:42;;;;;;;14.23;10.02;;;23.00;99.90;;;;;;5104212;28;20039;-61
2023/09/12 12:13:17;;;;;;;13.32;9.85;;;23.10;99.90;;;;;;5098608;28;20441;-60
2023/09/12 12:15:43;;;;;;;13.15;9.15;;;23.10;99.90;;;;;;5098309;28;20039;-60
2023/09/12 12:18:08;;;;;;;14.45;8.07;;;23.10;99.90;;;;;;5087505;28;20088;-60
2023/09/12 12:20:34;;;;;;;17.35;9.50;;;23.10;99.90;;;;;;5108044;28;20035;-60
2023/09/12 12:23:00;;;;;;;12.73;9.57;;;23.10;99.90;;;;;;5102759;28;20483;-60
2023/09/12 12:25:26;;;;;;;10.60;9.18;;;22.90;99.90;;;;;;5089868;28;20039;-60
2023/09/12 12:27:51;;;;;;;14.02;10.80;;;22.80;99.90;;;;;;5086824;28;20040;-60
2023/09/12 12:30:18;;;;;;;13.75;10.10;;;22.70;99.90;;;;;;5100352;28;20040;-59